Holstein, IA (51025)

7:55 AM CST on November 23, 2014 (GMT -0600)
Holstein Ag Services, LLC | Change Station
CLOSE
Current Station
Personal Weather Station
Location: Holstein, IA
Elevation: 1381 ft
Nearby Weather Stations

Elev 1381 ft 42.50 °N, 95.54 °W | Updated 3 seconds ago

Overcast
Overcast
51.3 °F
Feels Like 51.3 °F
N
14.0
Wind Variable Wind from South
Gusts 16.0 mph

Today
High -- | Low -- °F
--% Chance of Precip.
Yesterday
High -- | Low -- °F
Precip. -- in
7:23 AM 4:53 PM
New Moon, 1% visible
Pressure 29.45 in
Visibility 5.0 miles
Clouds Scattered Clouds 900 ft
Mostly Cloudy 1700 ft
Overcast 2200 ft
Dew Point Not available.
Humidity Not available.
Rainfall 0.00 in
Snow Depth Not available.
UV 0 out of 12
Pollen .10 out of 12
Air Quality Not available.
Flu Activity Not available.
METAR KCKP 231335Z AUTO 21005KT 5SM BR SCT009 BKN017 OVC022 10/10 A2945 RMK AO2 T01000100

More Conditions Fewer Conditions

Pressure 29.45 in
Visibility 5.0 miles
Clouds Scattered Clouds 900 ft
Mostly Cloudy 1700 ft
Overcast 2200 ft
Dew Point Not available.
Humidity Not available.
Rainfall 0.00 in
Snow Depth Not available.
UV 0 out of 12
Pollen .10 out of 12
Air Quality Not available.
Flu Activity Not available.
METAR KCKP 231335Z AUTO 21005KT 5SM BR SCT009 BKN017 OVC022 10/10 A2945 RMK AO2 T01000100

More Conditions Fewer Conditions

10-Day Weather Forecast

Almanac

Astronomy

Nov. 23, 2014 Rise Set
Actual Time
Civil Twilight
Nautical Twilight
Astronomical Twilight
Moon
Length of Visible Light
Length of Day
Tomorrow will be .
, % of the Moon is Illuminated

Today's Extremes

State Highs State Lows

Community

WunderPhotos

Upload Photos

1,773,062 photos uploaded!

WunderBlogs® & News

Nearby

Air Quality

  Air Quality AQ Index Pollutant
Not available.

Snow Depth

Station Depth Elevation

Earthquake Activity

City Distance Mag. Time & Date
Minimum magnitude displayed is 2.5.

Coastal Water Temperatures

Place Temperature

Nearby Weather Stations